sensor_id;sensor_type;location;lat;lon;timestamp;P1;durP1;ratioP1;P2;durP2;ratioP2
55320;SDS011;41184;44.272;19.890;2022-10-19T00:02:25;18.67;;;12.48;;
55320;SDS011;41184;44.272;19.890;2022-10-19T00:04:52;15.20;;;11.50;;
55320;SDS011;41184;44.272;19.890;2022-10-19T00:07:18;18.80;;;12.20;;
55320;SDS011;41184;44.272;19.890;2022-10-19T00:09:44;15.55;;;11.32;;
55320;SDS011;41184;44.272;19.890;2022-10-19T00:12:10;18.30;;;12.43;;
55320;SDS011;41184;44.272;19.890;2022-10-19T00:14:37;16.77;;;12.05;;
55320;SDS011;41184;44.272;19.890;2022-10-19T00:17:03;16.30;;;10.75;;
55320;SDS011;41184;44.272;19.890;2022-10-19T00:19:29;15.27;;;11.93;;
55320;SDS011;41184;44.272;19.890;2022-10-19T00:21:55;17.20;;;12.07;;
55320;SDS011;41184;44.272;19.890;2022-10-19T00:24:21;23.67;;;13.52;;
55320;SDS011;41184;44.272;19.890;2022-10-19T00:26:47;21.48;;;11.25;;
55320;SDS011;41184;44.272;19.890;2022-10-19T00:29:13;16.13;;;11.25;;
55320;SDS011;41184;44.272;19.890;2022-10-19T00:31:39;16.70;;;10.85;;
55320;SDS011;41184;44.272;19.890;2022-10-19T00:34:06;16.63;;;10.55;;
55320;SDS011;41184;44.272;19.890;2022-10-19T00:36:33;15.32;;;11.05;;
55320;SDS011;41184;44.272;19.890;2022-10-19T00:39:00;14.52;;;10.63;;
55320;SDS011;41184;44.272;19.890;2022-10-19T00:41:28;15.20;;;11.48;;
55320;SDS011;41184;44.272;19.890;2022-10-19T00:43:56;17.80;;;11.48;;
55320;SDS011;41184;44.272;19.890;2022-10-19T00:46:22;19.05;;;12.13;;
55320;SDS011;41184;44.272;19.890;2022-10-19T00:48:49;20.08;;;11.88;;
55320;SDS011;41184;44.272;19.890;2022-10-19T00:51:15;17.27;;;12.38;;
55320;SDS011;41184;44.272;19.890;2022-10-19T00:53:42;16.10;;;12.18;;
55320;SDS011;41184;44.272;19.890;2022-10-19T00:56:09;15.98;;;11.75;;
55320;SDS011;41184;44.272;19.890;2022-10-19T00:58:36;18.05;;;11.25;;
55320;SDS011;41184;44.272;19.890;2022-10-19T01:01:03;19.15;;;13.10;;
55320;SDS011;41184;44.272;19.890;2022-10-19T01:03:30;18.63;;;12.00;;
55320;SDS011;41184;44.272;19.890;2022-10-19T01:05:57;18.70;;;12.65;;
55320;SDS011;41184;44.272;19.890;2022-10-19T01:08:23;17.88;;;11.02;;
55320;SDS011;41184;44.272;19.890;2022-10-19T01:21:49;17.23;;;11.60;;
55320;SDS011;41184;44.272;19.890;2022-10-19T01:32:14;15.70;;;10.75;;
55320;SDS011;41184;44.272;19.890;2022-10-19T01:34:51;18.13;;;11.35;;
55320;SDS011;41184;44.272;19.890;2022-10-19T01:39:51;16.83;;;11.63;;
55320;SDS011;41184;44.272;19.890;2022-10-19T01:42:24;15.57;;;10.13;;
55320;SDS011;41184;44.272;19.890;2022-10-19T01:44:54;13.25;;;10.50;;
55320;SDS011;41184;44.272;19.890;2022-10-19T01:50:35;15.23;;;10.43;;
55320;SDS011;41184;44.272;19.890;2022-10-19T01:52:59;21.48;;;11.57;;
55320;SDS011;41184;44.272;19.890;2022-10-19T01:55:26;15.23;;;9.65;;
55320;SDS011;41184;44.272;19.890;2022-10-19T01:57:58;14.88;;;9.93;;
55320;SDS011;41184;44.272;19.890;2022-10-19T02:00:25;14.88;;;9.88;;
55320;SDS011;41184;44.272;19.890;2022-10-19T02:02:52;13.30;;;9.82;;
55320;SDS011;41184;44.272;19.890;2022-10-19T02:05:20;18.48;;;11.00;;
55320;SDS011;41184;44.272;19.890;2022-10-19T02:07:48;12.35;;;9.43;;
55320;SDS011;41184;44.272;19.890;2022-10-19T02:10:15;14.80;;;9.93;;
55320;SDS011;41184;44.272;19.890;2022-10-19T02:12:42;13.63;;;9.65;;
55320;SDS011;41184;44.272;19.890;2022-10-19T02:15:09;13.32;;;9.75;;
55320;SDS011;41184;44.272;19.890;2022-10-19T02:17:37;15.05;;;10.70;;
55320;SDS011;41184;44.272;19.890;2022-10-19T02:20:05;14.63;;;9.40;;
55320;SDS011;41184;44.272;19.890;2022-10-19T02:22:31;16.13;;;10.60;;
55320;SDS011;41184;44.272;19.890;2022-10-19T02:24:57;12.13;;;8.85;;
55320;SDS011;41184;44.272;19.890;2022-10-19T02:27:23;15.45;;;9.85;;
55320;SDS011;41184;44.272;19.890;2022-10-19T02:29:50;15.75;;;10.05;;
55320;SDS011;41184;44.272;19.890;2022-10-19T02:32:16;13.40;;;9.23;;
55320;SDS011;41184;44.272;19.890;2022-10-19T02:34:42;15.48;;;9.55;;
55320;SDS011;41184;44.272;19.890;2022-10-19T02:37:08;14.02;;;10.32;;
55320;SDS011;41184;44.272;19.890;2022-10-19T02:39:34;12.95;;;9.55;;
55320;SDS011;41184;44.272;19.890;2022-10-19T02:42:03;13.80;;;9.80;;
55320;SDS011;41184;44.272;19.890;2022-10-19T02:44:30;11.43;;;9.02;;
55320;SDS011;41184;44.272;19.890;2022-10-19T02:47:12;14.52;;;9.45;;
55320;SDS011;41184;44.272;19.890;2022-10-19T02:49:39;14.85;;;9.82;;
55320;SDS011;41184;44.272;19.890;2022-10-19T02:52:08;13.63;;;10.32;;
55320;SDS011;41184;44.272;19.890;2022-10-19T02:54:34;12.95;;;9.48;;
55320;SDS011;41184;44.272;19.890;2022-10-19T02:57:01;13.15;;;10.13;;
55320;SDS011;41184;44.272;19.890;2022-10-19T02:59:28;16.45;;;11.05;;
55320;SDS011;41184;44.272;19.890;2022-10-19T03:01:54;15.18;;;10.85;;
55320;SDS011;41184;44.272;19.890;2022-10-19T03:04:20;24.75;;;14.55;;
55320;SDS011;41184;44.272;19.890;2022-10-19T03:06:46;21.10;;;12.48;;
55320;SDS011;41184;44.272;19.890;2022-10-19T03:09:12;30.77;;;16.95;;
55320;SDS011;41184;44.272;19.890;2022-10-19T03:11:38;29.10;;;17.63;;
55320;SDS011;41184;44.272;19.890;2022-10-19T03:14:04;21.63;;;14.88;;
55320;SDS011;41184;44.272;19.890;2022-10-19T03:16:30;17.73;;;12.73;;
55320;SDS011;41184;44.272;19.890;2022-10-19T03:18:56;26.48;;;17.35;;
55320;SDS011;41184;44.272;19.890;2022-10-19T03:21:22;28.77;;;18.15;;
55320;SDS011;41184;44.272;19.890;2022-10-19T03:23:48;19.88;;;11.90;;
55320;SDS011;41184;44.272;19.890;2022-10-19T03:26:15;21.80;;;13.90;;
55320;SDS011;41184;44.272;19.890;2022-10-19T03:28:41;14.35;;;11.80;;
55320;SDS011;41184;44.272;19.890;2022-10-19T03:31:07;14.85;;;10.85;;
55320;SDS011;41184;44.272;19.890;2022-10-19T03:33:33;18.10;;;10.88;;
55320;SDS011;41184;44.272;19.890;2022-10-19T03:36:12;16.60;;;11.77;;
55320;SDS011;41184;44.272;19.890;2022-10-19T03:38:39;19.42;;;11.85;;
55320;SDS011;41184;44.272;19.890;2022-10-19T03:41:05;17.85;;;12.38;;
55320;SDS011;41184;44.272;19.890;2022-10-19T03:43:32;21.13;;;12.63;;
55320;SDS011;41184;44.272;19.890;2022-10-19T03:45:58;22.73;;;12.95;;
55320;SDS011;41184;44.272;19.890;2022-10-19T03:48:24;19.23;;;12.30;;
55320;SDS011;41184;44.272;19.890;2022-10-19T03:51:03;17.88;;;12.55;;
55320;SDS011;41184;44.272;19.890;2022-10-19T03:53:30;15.63;;;12.48;;
55320;SDS011;41184;44.272;19.890;2022-10-19T03:58:28;15.70;;;11.07;;
55320;SDS011;41184;44.272;19.890;2022-10-19T04:00:56;15.05;;;11.38;;
55320;SDS011;41184;44.272;19.890;2022-10-19T04:03:22;16.98;;;11.57;;
55320;SDS011;41184;44.272;19.890;2022-10-19T04:05:48;16.95;;;12.02;;
55320;SDS011;41184;44.272;19.890;2022-10-19T04:08:14;17.77;;;13.05;;
55320;SDS011;41184;44.272;19.890;2022-10-19T04:10:40;18.35;;;13.15;;
55320;SDS011;41184;44.272;19.890;2022-10-19T04:13:06;20.88;;;14.18;;
55320;SDS011;41184;44.272;19.890;2022-10-19T04:15:32;16.67;;;13.20;;
55320;SDS011;41184;44.272;19.890;2022-10-19T04:17:58;19.48;;;13.73;;
55320;SDS011;41184;44.272;19.890;2022-10-19T04:20:24;19.65;;;13.02;;
55320;SDS011;41184;44.272;19.890;2022-10-19T04:22:53;17.88;;;13.70;;
55320;SDS011;41184;44.272;19.890;2022-10-19T04:25:19;19.17;;;13.05;;
55320;SDS011;41184;44.272;19.890;2022-10-19T04:27:45;20.80;;;14.80;;
55320;SDS011;41184;44.272;19.890;2022-10-19T04:30:11;28.92;;;13.95;;
55320;SDS011;41184;44.272;19.890;2022-10-19T04:32:37;20.15;;;14.32;;
55320;SDS011;41184;44.272;19.890;2022-10-19T04:35:03;21.40;;;14.63;;
55320;SDS011;41184;44.272;19.890;2022-10-19T04:37:30;21.23;;;14.85;;
55320;SDS011;41184;44.272;19.890;2022-10-19T04:39:56;22.40;;;17.90;;
55320;SDS011;41184;44.272;19.890;2022-10-19T04:42:22;19.10;;;15.95;;
55320;SDS011;41184;44.272;19.890;2022-10-19T04:44:48;20.60;;;14.80;;
55320;SDS011;41184;44.272;19.890;2022-10-19T04:47:14;21.23;;;14.55;;
55320;SDS011;41184;44.272;19.890;2022-10-19T04:49:40;20.95;;;14.77;;
55320;SDS011;41184;44.272;19.890;2022-10-19T04:52:06;23.85;;;15.77;;
55320;SDS011;41184;44.272;19.890;2022-10-19T04:54:32;24.27;;;16.48;;
55320;SDS011;41184;44.272;19.890;2022-10-19T04:56:58;23.70;;;16.75;;
55320;SDS011;41184;44.272;19.890;2022-10-19T04:59:24;28.52;;;19.20;;
55320;SDS011;41184;44.272;19.890;2022-10-19T05:01:50;33.92;;;20.55;;
55320;SDS011;41184;44.272;19.890;2022-10-19T05:04:16;27.75;;;20.17;;
55320;SDS011;41184;44.272;19.890;2022-10-19T05:06:43;35.72;;;20.73;;
55320;SDS011;41184;44.272;19.890;2022-10-19T05:09:09;31.83;;;21.00;;
55320;SDS011;41184;44.272;19.890;2022-10-19T05:11:35;35.50;;;25.35;;
55320;SDS011;41184;44.272;19.890;2022-10-19T05:14:01;36.83;;;24.35;;
55320;SDS011;41184;44.272;19.890;2022-10-19T05:16:27;33.47;;;24.00;;
55320;SDS011;41184;44.272;19.890;2022-10-19T05:18:53;33.15;;;23.38;;
55320;SDS011;41184;44.272;19.890;2022-10-19T05:21:23;32.25;;;22.65;;
55320;SDS011;41184;44.272;19.890;2022-10-19T05:23:51;35.65;;;23.55;;
55320;SDS011;41184;44.272;19.890;2022-10-19T05:26:18;33.50;;;24.73;;
55320;SDS011;41184;44.272;19.890;2022-10-19T05:28:51;32.13;;;22.55;;
55320;SDS011;41184;44.272;19.890;2022-10-19T05:31:22;27.63;;;21.42;;
55320;SDS011;41184;44.272;19.890;2022-10-19T05:33:48;35.75;;;22.38;;
55320;SDS011;41184;44.272;19.890;2022-10-19T05:36:19;41.13;;;23.98;;
55320;SDS011;41184;44.272;19.890;2022-10-19T05:38:46;34.75;;;23.88;;
55320;SDS011;41184;44.272;19.890;2022-10-19T05:41:13;32.17;;;23.02;;
55320;SDS011;41184;44.272;19.890;2022-10-19T05:43:40;35.28;;;22.20;;
55320;SDS011;41184;44.272;19.890;2022-10-19T05:46:07;35.00;;;23.90;;
55320;SDS011;41184;44.272;19.890;2022-10-19T05:48:34;34.55;;;23.45;;
55320;SDS011;41184;44.272;19.890;2022-10-19T05:51:00;32.47;;;24.35;;
55320;SDS011;41184;44.272;19.890;2022-10-19T05:53:27;39.35;;;27.90;;
55320;SDS011;41184;44.272;19.890;2022-10-19T05:55:53;35.58;;;30.08;;
55320;SDS011;41184;44.272;19.890;2022-10-19T05:58:20;40.25;;;30.70;;
55320;SDS011;41184;44.272;19.890;2022-10-19T06:00:50;49.05;;;38.35;;
55320;SDS011;41184;44.272;19.890;2022-10-19T06:03:16;40.22;;;28.63;;
55320;SDS011;41184;44.272;19.890;2022-10-19T06:05:42;41.53;;;33.85;;
55320;SDS011;41184;44.272;19.890;2022-10-19T06:08:08;44.72;;;33.72;;
55320;SDS011;41184;44.272;19.890;2022-10-19T06:10:34;47.53;;;32.95;;
55320;SDS011;41184;44.272;19.890;2022-10-19T06:13:00;37.50;;;28.77;;
55320;SDS011;41184;44.272;19.890;2022-10-19T06:15:26;38.13;;;30.13;;
55320;SDS011;41184;44.272;19.890;2022-10-19T06:17:52;34.78;;;28.77;;
55320;SDS011;41184;44.272;19.890;2022-10-19T06:20:18;45.70;;;32.03;;
55320;SDS011;41184;44.272;19.890;2022-10-19T06:22:44;63.08;;;48.38;;
55320;SDS011;41184;44.272;19.890;2022-10-19T06:25:10;54.92;;;41.42;;
55320;SDS011;41184;44.272;19.890;2022-10-19T06:27:36;74.53;;;54.55;;
55320;SDS011;41184;44.272;19.890;2022-10-19T06:30:02;73.85;;;54.20;;
55320;SDS011;41184;44.272;19.890;2022-10-19T06:32:28;50.90;;;36.08;;
55320;SDS011;41184;44.272;19.890;2022-10-19T06:34:56;45.35;;;35.22;;
55320;SDS011;41184;44.272;19.890;2022-10-19T06:37:22;43.03;;;30.20;;
55320;SDS011;41184;44.272;19.890;2022-10-19T06:39:48;45.55;;;32.58;;
55320;SDS011;41184;44.272;19.890;2022-10-19T06:42:14;44.58;;;28.25;;
55320;SDS011;41184;44.272;19.890;2022-10-19T06:44:40;38.25;;;28.90;;
55320;SDS011;41184;44.272;19.890;2022-10-19T06:47:06;36.15;;;27.40;;
55320;SDS011;41184;44.272;19.890;2022-10-19T06:49:32;34.22;;;25.90;;
55320;SDS011;41184;44.272;19.890;2022-10-19T06:52:00;35.35;;;26.15;;
55320;SDS011;41184;44.272;19.890;2022-10-19T06:54:26;32.40;;;24.33;;
55320;SDS011;41184;44.272;19.890;2022-10-19T06:56:52;32.50;;;25.02;;
55320;SDS011;41184;44.272;19.890;2022-10-19T06:59:18;34.40;;;25.85;;
55320;SDS011;41184;44.272;19.890;2022-10-19T07:01:44;42.13;;;30.20;;
55320;SDS011;41184;44.272;19.890;2022-10-19T07:04:10;33.95;;;22.38;;
55320;SDS011;41184;44.272;19.890;2022-10-19T07:06:36;30.77;;;23.27;;
55320;SDS011;41184;44.272;19.890;2022-10-19T07:09:02;27.30;;;20.80;;
55320;SDS011;41184;44.272;19.890;2022-10-19T07:11:29;34.72;;;24.52;;
55320;SDS011;41184;44.272;19.890;2022-10-19T07:13:55;42.13;;;31.42;;
55320;SDS011;41184;44.272;19.890;2022-10-19T07:16:21;31.35;;;25.23;;
55320;SDS011;41184;44.272;19.890;2022-10-19T07:18:48;37.38;;;23.17;;
55320;SDS011;41184;44.272;19.890;2022-10-19T07:21:15;30.80;;;24.10;;
55320;SDS011;41184;44.272;19.890;2022-10-19T07:23:41;33.40;;;23.83;;
55320;SDS011;41184;44.272;19.890;2022-10-19T07:28:36;36.92;;;28.30;;
55320;SDS011;41184;44.272;19.890;2022-10-19T07:31:05;35.08;;;25.02;;
55320;SDS011;41184;44.272;19.890;2022-10-19T07:33:32;30.80;;;23.40;;
55320;SDS011;41184;44.272;19.890;2022-10-19T07:35:59;38.95;;;26.83;;
55320;SDS011;41184;44.272;19.890;2022-10-19T07:38:25;35.15;;;25.63;;
55320;SDS011;41184;44.272;19.890;2022-10-19T07:40:51;30.27;;;25.52;;
55320;SDS011;41184;44.272;19.890;2022-10-19T07:43:24;29.77;;;24.35;;
55320;SDS011;41184;44.272;19.890;2022-10-19T07:45:55;26.10;;;21.60;;
55320;SDS011;41184;44.272;19.890;2022-10-19T07:48:22;28.05;;;22.27;;
55320;SDS011;41184;44.272;19.890;2022-10-19T07:50:48;23.92;;;20.63;;
55320;SDS011;41184;44.272;19.890;2022-10-19T07:53:14;26.20;;;21.05;;
55320;SDS011;41184;44.272;19.890;2022-10-19T07:55:40;27.77;;;21.67;;
55320;SDS011;41184;44.272;19.890;2022-10-19T07:58:06;21.95;;;17.90;;
55320;SDS011;41184;44.272;19.890;2022-10-19T08:00:32;21.35;;;16.38;;
55320;SDS011;41184;44.272;19.890;2022-10-19T08:02:58;18.70;;;15.75;;
55320;SDS011;41184;44.272;19.890;2022-10-19T08:05:25;18.73;;;15.98;;
55320;SDS011;41184;44.272;19.890;2022-10-19T08:07:51;26.73;;;18.00;;
55320;SDS011;41184;44.272;19.890;2022-10-19T08:10:17;24.50;;;16.15;;
55320;SDS011;41184;44.272;19.890;2022-10-19T08:12:43;26.20;;;14.90;;
55320;SDS011;41184;44.272;19.890;2022-10-19T08:15:09;20.00;;;15.98;;
55320;SDS011;41184;44.272;19.890;2022-10-19T08:17:35;22.67;;;14.75;;
55320;SDS011;41184;44.272;19.890;2022-10-19T08:20:04;22.50;;;15.05;;
55320;SDS011;41184;44.272;19.890;2022-10-19T08:22:30;17.90;;;13.90;;
55320;SDS011;41184;44.272;19.890;2022-10-19T08:24:56;19.33;;;14.48;;
55320;SDS011;41184;44.272;19.890;2022-10-19T08:27:22;17.15;;;13.65;;
55320;SDS011;41184;44.272;19.890;2022-10-19T08:29:48;19.02;;;13.50;;
55320;SDS011;41184;44.272;19.890;2022-10-19T08:32:16;20.52;;;13.00;;
55320;SDS011;41184;44.272;19.890;2022-10-19T08:34:42;25.33;;;14.45;;
55320;SDS011;41184;44.272;19.890;2022-10-19T08:37:09;22.15;;;13.98;;
55320;SDS011;41184;44.272;19.890;2022-10-19T08:39:35;18.20;;;13.27;;
55320;SDS011;41184;44.272;19.890;2022-10-19T08:49:44;17.70;;;12.60;;
55320;SDS011;41184;44.272;19.890;2022-10-19T08:52:13;17.98;;;14.30;;
55320;SDS011;41184;44.272;19.890;2022-10-19T09:02:21;17.38;;;11.82;;
55320;SDS011;41184;44.272;19.890;2022-10-19T09:04:53;17.58;;;12.57;;
55320;SDS011;41184;44.272;19.890;2022-10-19T09:09:57;18.92;;;12.63;;
55320;SDS011;41184;44.272;19.890;2022-10-19T09:12:30;16.55;;;12.10;;
55320;SDS011;41184;44.272;19.890;2022-10-19T09:14:58;18.45;;;12.90;;
55320;SDS011;41184;44.272;19.890;2022-10-19T09:17:26;13.48;;;11.55;;
55320;SDS011;41184;44.272;19.890;2022-10-19T09:19:52;14.68;;;11.57;;
55320;SDS011;41184;44.272;19.890;2022-10-19T09:22:31;78.03;;;18.08;;
55320;SDS011;41184;44.272;19.890;2022-10-19T09:25:04;17.80;;;11.40;;
55320;SDS011;41184;44.272;19.890;2022-10-19T09:27:33;21.20;;;11.85;;
55320;SDS011;41184;44.272;19.890;2022-10-19T09:30:22;13.68;;;10.90;;
55320;SDS011;41184;44.272;19.890;2022-10-19T09:32:49;30.58;;;12.25;;
55320;SDS011;41184;44.272;19.890;2022-10-19T09:35:29;19.13;;;11.70;;
55320;SDS011;41184;44.272;19.890;2022-10-19T09:37:56;15.90;;;11.52;;
55320;SDS011;41184;44.272;19.890;2022-10-19T09:40:24;13.65;;;11.13;;
55320;SDS011;41184;44.272;19.890;2022-10-19T09:42:50;17.00;;;11.20;;
55320;SDS011;41184;44.272;19.890;2022-10-19T09:47:50;14.02;;;10.23;;
55320;SDS011;41184;44.272;19.890;2022-10-19T09:50:21;13.88;;;9.65;;
55320;SDS011;41184;44.272;19.890;2022-10-19T09:52:57;16.20;;;10.43;;
55320;SDS011;41184;44.272;19.890;2022-10-19T09:55:43;15.77;;;10.57;;
55320;SDS011;41184;44.272;19.890;2022-10-19T10:00:40;15.52;;;10.65;;
55320;SDS011;41184;44.272;19.890;2022-10-19T10:03:06;12.27;;;9.70;;
55320;SDS011;41184;44.272;19.890;2022-10-19T10:05:36;18.23;;;10.38;;
55320;SDS011;41184;44.272;19.890;2022-10-19T10:08:03;12.88;;;9.52;;
55320;SDS011;41184;44.272;19.890;2022-10-19T10:10:34;17.67;;;10.95;;
55320;SDS011;41184;44.272;19.890;2022-10-19T10:13:01;13.20;;;10.80;;
55320;SDS011;41184;44.272;19.890;2022-10-19T10:15:29;14.52;;;10.88;;
55320;SDS011;41184;44.272;19.890;2022-10-19T10:18:00;15.93;;;11.35;;
55320;SDS011;41184;44.272;19.890;2022-10-19T10:20:27;11.93;;;10.38;;
55320;SDS011;41184;44.272;19.890;2022-10-19T10:22:58;14.75;;;11.75;;
55320;SDS011;41184;44.272;19.890;2022-10-19T10:25:42;19.80;;;11.48;;
55320;SDS011;41184;44.272;19.890;2022-10-19T10:30:42;16.70;;;13.73;;
55320;SDS011;41184;44.272;19.890;2022-10-19T10:33:12;15.77;;;11.77;;
55320;SDS011;41184;44.272;19.890;2022-10-19T10:35:39;18.37;;;14.47;;
55320;SDS011;41184;44.272;19.890;2022-10-19T10:38:13;19.15;;;14.38;;
55320;SDS011;41184;44.272;19.890;2022-10-19T10:40:41;15.68;;;11.55;;
55320;SDS011;41184;44.272;19.890;2022-10-19T10:43:14;13.75;;;12.35;;
55320;SDS011;41184;44.272;19.890;2022-10-19T10:45:42;18.38;;;12.95;;
55320;SDS011;41184;44.272;19.890;2022-10-19T10:50:53;19.55;;;17.38;;
55320;SDS011;41184;44.272;19.890;2022-10-19T10:53:36;16.90;;;10.90;;
55320;SDS011;41184;44.272;19.890;2022-10-19T10:56:03;13.68;;;11.40;;
55320;SDS011;41184;44.272;19.890;2022-10-19T10:58:33;15.55;;;12.27;;
55320;SDS011;41184;44.272;19.890;2022-10-19T11:01:00;12.10;;;10.90;;
55320;SDS011;41184;44.272;19.890;2022-10-19T11:03:28;13.68;;;11.40;;
55320;SDS011;41184;44.272;19.890;2022-10-19T11:05:59;16.83;;;13.07;;
55320;SDS011;41184;44.272;19.890;2022-10-19T11:13:51;12.75;;;11.45;;
55320;SDS011;41184;44.272;19.890;2022-10-19T11:16:21;14.85;;;10.77;;
55320;SDS011;41184;44.272;19.890;2022-10-19T11:21:17;14.35;;;10.68;;
55320;SDS011;41184;44.272;19.890;2022-10-19T11:23:59;28.85;;;17.10;;
55320;SDS011;41184;44.272;19.890;2022-10-19T11:26:32;15.10;;;12.55;;
55320;SDS011;41184;44.272;19.890;2022-10-19T11:31:48;14.75;;;12.38;;
55320;SDS011;41184;44.272;19.890;2022-10-19T11:41:54;14.20;;;12.10;;
55320;SDS011;41184;44.272;19.890;2022-10-19T11:57:04;16.90;;;13.10;;
55320;SDS011;41184;44.272;19.890;2022-10-19T12:10:02;19.25;;;14.60;;
55320;SDS011;41184;44.272;19.890;2022-10-19T12:12:33;16.08;;;13.80;;
55320;SDS011;41184;44.272;19.890;2022-10-19T12:17:36;18.05;;;14.25;;
55320;SDS011;41184;44.272;19.890;2022-10-19T12:20:04;21.88;;;14.82;;
55320;SDS011;41184;44.272;19.890;2022-10-19T12:22:32;20.38;;;15.10;;
55320;SDS011;41184;44.272;19.890;2022-10-19T12:24:59;17.70;;;14.05;;
55320;SDS011;41184;44.272;19.890;2022-10-19T12:27:32;17.50;;;15.75;;
55320;SDS011;41184;44.272;19.890;2022-10-19T12:30:21;20.73;;;14.32;;
55320;SDS011;41184;44.272;19.890;2022-10-19T12:37:43;16.55;;;14.65;;
55320;SDS011;41184;44.272;19.890;2022-10-19T12:45:24;19.05;;;16.92;;
55320;SDS011;41184;44.272;19.890;2022-10-19T12:53:30;24.10;;;19.33;;
55320;SDS011;41184;44.272;19.890;2022-10-19T12:56:03;22.83;;;18.33;;
55320;SDS011;41184;44.272;19.890;2022-10-19T12:58:35;28.50;;;19.17;;
55320;SDS011;41184;44.272;19.890;2022-10-19T13:01:02;22.08;;;18.35;;
55320;SDS011;41184;44.272;19.890;2022-10-19T13:03:30;22.70;;;19.52;;
55320;SDS011;41184;44.272;19.890;2022-10-19T13:05:59;26.15;;;19.77;;
55320;SDS011;41184;44.272;19.890;2022-10-19T13:08:26;20.90;;;18.70;;
55320;SDS011;41184;44.272;19.890;2022-10-19T13:11:15;26.25;;;21.70;;
55320;SDS011;41184;44.272;19.890;2022-10-19T13:13:51;30.60;;;23.90;;
55320;SDS011;41184;44.272;19.890;2022-10-19T13:21:46;33.38;;;20.60;;
55320;SDS011;41184;44.272;19.890;2022-10-19T13:26:44;28.20;;;19.40;;
55320;SDS011;41184;44.272;19.890;2022-10-19T13:29:24;26.67;;;21.50;;
55320;SDS011;41184;44.272;19.890;2022-10-19T13:31:50;30.58;;;24.17;;
55320;SDS011;41184;44.272;19.890;2022-10-19T13:34:16;30.27;;;22.00;;
55320;SDS011;41184;44.272;19.890;2022-10-19T13:36:58;26.25;;;22.52;;
55320;SDS011;41184;44.272;19.890;2022-10-19T13:39:28;28.10;;;22.00;;
55320;SDS011;41184;44.272;19.890;2022-10-19T13:41:54;33.47;;;23.83;;
55320;SDS011;41184;44.272;19.890;2022-10-19T13:44:28;29.30;;;21.95;;
55320;SDS011;41184;44.272;19.890;2022-10-19T13:47:02;40.75;;;26.77;;
55320;SDS011;41184;44.272;19.890;2022-10-19T13:49:56;29.60;;;23.73;;
55320;SDS011;41184;44.272;19.890;2022-10-19T14:00:10;28.80;;;24.48;;
55320;SDS011;41184;44.272;19.890;2022-10-19T14:10:15;32.33;;;25.25;;
55320;SDS011;41184;44.272;19.890;2022-10-19T14:12:41;30.58;;;24.65;;
55320;SDS011;41184;44.272;19.890;2022-10-19T14:15:30;30.50;;;24.70;;
55320;SDS011;41184;44.272;19.890;2022-10-19T14:17:55;27.40;;;22.95;;
55320;SDS011;41184;44.272;19.890;2022-10-19T14:22:47;38.05;;;25.73;;
55320;SDS011;41184;44.272;19.890;2022-10-19T14:25:17;32.60;;;24.80;;
55320;SDS011;41184;44.272;19.890;2022-10-19T14:27:45;34.10;;;25.02;;
55320;SDS011;41184;44.272;19.890;2022-10-19T14:32:47;41.50;;;29.25;;
55320;SDS011;41184;44.272;19.890;2022-10-19T14:35:21;34.05;;;28.60;;
55320;SDS011;41184;44.272;19.890;2022-10-19T14:37:47;33.50;;;29.23;;
55320;SDS011;41184;44.272;19.890;2022-10-19T14:40:27;32.65;;;27.90;;
55320;SDS011;41184;44.272;19.890;2022-10-19T14:42:54;29.88;;;24.95;;
55320;SDS011;41184;44.272;19.890;2022-10-19T14:45:25;32.70;;;26.13;;
55320;SDS011;41184;44.272;19.890;2022-10-19T14:50:32;30.17;;;23.73;;
55320;SDS011;41184;44.272;19.890;2022-10-19T14:53:15;37.30;;;26.13;;
55320;SDS011;41184;44.272;19.890;2022-10-19T14:55:43;29.52;;;24.65;;
55320;SDS011;41184;44.272;19.890;2022-10-19T14:58:14;30.13;;;24.77;;
55320;SDS011;41184;44.272;19.890;2022-10-19T15:00:41;32.88;;;27.80;;
55320;SDS011;41184;44.272;19.890;2022-10-19T15:03:09;30.60;;;25.13;;
55320;SDS011;41184;44.272;19.890;2022-10-19T15:05:38;35.28;;;28.00;;
55320;SDS011;41184;44.272;19.890;2022-10-19T15:11:03;34.60;;;25.48;;
55320;SDS011;41184;44.272;19.890;2022-10-19T15:13:32;41.55;;;31.00;;
55320;SDS011;41184;44.272;19.890;2022-10-19T15:15:58;38.13;;;29.13;;
55320;SDS011;41184;44.272;19.890;2022-10-19T15:18:25;38.50;;;31.10;;
55320;SDS011;41184;44.272;19.890;2022-10-19T15:21:09;36.53;;;28.52;;
55320;SDS011;41184;44.272;19.890;2022-10-19T15:23:41;40.08;;;29.70;;
55320;SDS011;41184;44.272;19.890;2022-10-19T15:26:16;43.50;;;31.25;;
55320;SDS011;41184;44.272;19.890;2022-10-19T15:28:43;45.17;;;33.95;;
55320;SDS011;41184;44.272;19.890;2022-10-19T15:33:48;47.78;;;37.53;;
55320;SDS011;41184;44.272;19.890;2022-10-19T15:36:15;48.22;;;36.58;;
55320;SDS011;41184;44.272;19.890;2022-10-19T15:38:42;40.47;;;31.88;;
55320;SDS011;41184;44.272;19.890;2022-10-19T15:41:19;43.47;;;34.22;;
55320;SDS011;41184;44.272;19.890;2022-10-19T15:43:47;44.25;;;34.03;;
55320;SDS011;41184;44.272;19.890;2022-10-19T15:46:24;45.20;;;36.22;;
55320;SDS011;41184;44.272;19.890;2022-10-19T15:48:54;43.78;;;34.90;;
55320;SDS011;41184;44.272;19.890;2022-10-19T15:56:18;51.97;;;39.22;;
55320;SDS011;41184;44.272;19.890;2022-10-19T15:58:48;41.67;;;33.63;;
55320;SDS011;41184;44.272;19.890;2022-10-19T16:01:15;45.00;;;33.78;;
55320;SDS011;41184;44.272;19.890;2022-10-19T16:03:42;41.75;;;35.65;;
55320;SDS011;41184;44.272;19.890;2022-10-19T16:06:08;35.80;;;30.23;;
55320;SDS011;41184;44.272;19.890;2022-10-19T16:08:34;37.53;;;27.50;;
55320;SDS011;41184;44.272;19.890;2022-10-19T16:11:00;32.78;;;27.63;;
55320;SDS011;41184;44.272;19.890;2022-10-19T16:13:28;36.10;;;28.02;;
55320;SDS011;41184;44.272;19.890;2022-10-19T16:15:58;39.05;;;28.35;;
55320;SDS011;41184;44.272;19.890;2022-10-19T16:18:25;42.90;;;27.23;;
55320;SDS011;41184;44.272;19.890;2022-10-19T16:20:51;36.45;;;28.38;;
55320;SDS011;41184;44.272;19.890;2022-10-19T16:23:17;45.92;;;37.92;;
55320;SDS011;41184;44.272;19.890;2022-10-19T16:25:43;56.95;;;44.72;;
55320;SDS011;41184;44.272;19.890;2022-10-19T16:28:09;59.17;;;48.35;;
55320;SDS011;41184;44.272;19.890;2022-10-19T16:30:36;60.95;;;46.00;;
55320;SDS011;41184;44.272;19.890;2022-10-19T16:33:02;51.15;;;42.70;;
55320;SDS011;41184;44.272;19.890;2022-10-19T16:35:28;54.08;;;43.53;;
55320;SDS011;41184;44.272;19.890;2022-10-19T16:37:54;60.78;;;49.22;;
55320;SDS011;41184;44.272;19.890;2022-10-19T16:40:20;67.15;;;50.15;;
55320;SDS011;41184;44.272;19.890;2022-10-19T16:42:48;75.03;;;54.97;;
55320;SDS011;41184;44.272;19.890;2022-10-19T16:45:14;69.80;;;50.47;;
55320;SDS011;41184;44.272;19.890;2022-10-19T16:47:40;72.93;;;53.15;;
55320;SDS011;41184;44.272;19.890;2022-10-19T16:50:07;95.53;;;71.50;;
55320;SDS011;41184;44.272;19.890;2022-10-19T16:52:34;95.40;;;76.40;;
55320;SDS011;41184;44.272;19.890;2022-10-19T16:55:00;96.15;;;72.80;;